Time,TemperatureF,DewpointF,PressureIn,WindDirection,WindDirectionDegrees,WindSpeedMPH,WindSpeedGustMPH,Humidity,HourlyPrecipIn,Conditions,Clouds,dailyrainin,SolarRadiationWatts/m^2,SoftwareType,DateUTC
2013-02-04 00:04:00,45.2,44.0,30.10,NW,309,0.0,-999.0,95,-99.99,,,0.00,0,weatherlink.com 1.10,2013-02-04 05:04:00,
2013-02-04 00:19:00,44.2,43.0,30.11,NW,309,0.0,-999.0,96,-99.99,,,0.00,0,weatherlink.com 1.10,2013-02-04 05:19:00,
2013-02-04 00:34:00,44.3,44.0,30.11,NW,309,0.0,-999.0,97,-99.99,,,0.00,0,weatherlink.com 1.10,2013-02-04 05:34:00,
2013-02-04 00:50:00,44.6,44.0,30.11,NW,309,0.0,-999.0,97,-99.99,,,0.00,0,weatherlink.com 1.10,2013-02-04 05:50:00,
2013-02-04 01:04:00,42.8,42.0,30.11,NW,309,0.0,-999.0,97,-99.99,,,0.00,0,weatherlink.com 1.10,2013-02-04 06:04:00,
2013-02-04 01:19:00,42.5,42.0,30.11,NW,309,0.0,-999.0,97,-99.99,,,0.00,0,weatherlink.com 1.10,2013-02-04 06:19:00,
2013-02-04 01:34:00,41.8,41.0,30.11,NW,309,0.0,-999.0,97,-99.99,,,0.00,0,weatherlink.com 1.10,2013-02-04 06:34:00,
2013-02-04 01:50:00,41.5,41.0,30.10,NW,309,0.0,-999.0,98,-99.99,,,0.00,0,weatherlink.com 1.10,2013-02-04 06:50:00,
2013-02-04 02:05:00,41.2,41.0,30.10,NW,309,0.0,-999.0,98,-99.99,,,0.00,0,weatherlink.com 1.10,2013-02-04 07:05:00,
2013-02-04 02:20:00,41.1,41.0,30.11,NW,309,0.0,-999.0,98,-99.99,,,0.00,0,weatherlink.com 1.10,2013-02-04 07:20:00,
2013-02-04 02:35:00,40.5,40.0,30.10,NW,309,0.0,-999.0,98,-99.99,,,0.00,0,weatherlink.com 1.10,2013-02-04 07:35:00,
2013-02-04 02:50:00,40.5,40.0,30.10,NW,309,0.0,-999.0,98,-99.99,,,0.00,0,weatherlink.com 1.10,2013-02-04 07:50:00,
2013-02-04 03:05:00,40.6,40.0,30.10,NW,309,0.0,-999.0,99,-99.99,,,0.00,0,weatherlink.com 1.10,2013-02-04 08:05:00,
2013-02-04 03:20:00,40.5,40.0,30.10,NW,309,0.0,-999.0,99,-99.99,,,0.00,0,weatherlink.com 1.10,2013-02-04 08:20:00,
2013-02-04 03:35:00,40.2,40.0,30.10,NW,309,0.0,-999.0,99,-99.99,,,0.00,0,weatherlink.com 1.10,2013-02-04 08:35:00,
2013-02-04 03:49:00,39.6,39.0,30.11,NW,309,0.0,-999.0,99,-99.99,,,0.00,0,weatherlink.com 1.10,2013-02-04 08:49:00,
2013-02-04 04:05:00,39.5,39.0,30.10,NW,309,0.0,-999.0,99,-99.99,,,0.00,0,weatherlink.com 1.10,2013-02-04 09:05:00,
2013-02-04 04:20:00,39.1,39.0,30.10,NW,309,0.0,-999.0,99,-99.99,,,0.00,0,weatherlink.com 1.10,2013-02-04 09:20:00,
2013-02-04 04:35:00,38.5,38.0,30.10,NW,309,0.0,-999.0,99,-99.99,,,0.00,0,weatherlink.com 1.10,2013-02-04 09:35:00,
2013-02-04 04:50:00,38.2,38.0,30.10,NW,309,0.0,-999.0,100,-99.99,,,0.00,0,weatherlink.com 1.10,2013-02-04 09:50:00,
2013-02-04 05:05:00,38.3,38.0,30.11,NW,309,0.0,-999.0,100,-99.99,,,0.00,0,weatherlink.com 1.10,2013-02-04 10:05:00,
2013-02-04 05:20:00,38.3,38.0,30.09,NW,309,0.0,-999.0,100,-99.99,,,0.00,0,weatherlink.com 1.10,2013-02-04 10:20:00,
2013-02-04 05:35:00,38.0,38.0,30.09,NW,309,0.0,-999.0,100,-99.99,,,0.00,0,weatherlink.com 1.10,2013-02-04 10:35:00,
2013-02-04 05:50:00,38.0,38.0,30.09,NW,309,0.0,-999.0,100,-99.99,,,0.00,0,weatherlink.com 1.10,2013-02-04 10:50:00,
2013-02-04 06:04:00,38.5,39.0,30.09,NW,309,0.0,-999.0,100,-99.99,,,0.00,0,weatherlink.com 1.10,2013-02-04 11:04:00,
2013-02-04 06:20:00,38.3,38.0,30.09,NW,309,0.0,-999.0,100,-99.99,,,0.00,0,weatherlink.com 1.10,2013-02-04 11:20:00,
2013-02-04 06:35:00,39.2,39.0,30.09,NW,309,0.0,-999.0,100,-99.99,,,0.00,0,weatherlink.com 1.10,2013-02-04 11:35:00,
2013-02-04 06:50:00,40.1,40.0,30.10,NW,309,0.0,-999.0,100,-99.99,,,0.00,0,weatherlink.com 1.10,2013-02-04 11:50:00,
2013-02-04 07:05:00,40.2,40.0,30.10,NW,309,0.0,-999.0,100,-99.99,,,0.00,0,weatherlink.com 1.10,2013-02-04 12:05:00,
2013-02-04 07:20:00,40.3,40.0,30.11,NW,309,0.0,-999.0,100,-99.99,,,0.00,11,weatherlink.com 1.10,2013-02-04 12:20:00,
2013-02-04 07:35:00,41.5,42.0,30.12,NW,309,0.0,-999.0,100,-99.99,,,0.00,26,weatherlink.com 1.10,2013-02-04 12:35:00,
2013-02-04 07:49:00,42.2,42.0,30.13,NW,309,0.0,-999.0,100,-99.99,,,0.00,58,weatherlink.com 1.10,2013-02-04 12:49:00,
2013-02-04 08:04:00,43.8,44.0,30.13,NW,309,0.0,-999.0,100,-99.99,,,0.00,109,weatherlink.com 1.10,2013-02-04 13:04:00,
2013-02-04 08:19:00,47.9,48.0,30.12,NW,309,0.0,-999.0,100,-99.99,,,0.00,141,weatherlink.com 1.10,2013-02-04 13:19:00,
2013-02-04 08:34:00,48.9,49.0,30.14,NW,309,0.0,-999.0,100,-99.99,,,0.00,155,weatherlink.com 1.10,2013-02-04 13:34:00,
2013-02-04 08:49:00,51.9,52.0,30.13,NW,309,0.0,-999.0,100,-99.99,,,0.00,315,weatherlink.com 1.10,2013-02-04 13:49:00,
2013-02-04 09:05:00,51.3,51.0,30.13,NW,309,0.0,-999.0,100,-99.99,,,0.00,230,weatherlink.com 1.10,2013-02-04 14:05:00,
2013-02-04 09:19:00,50.8,51.0,30.13,NE,51,1.0,-999.0,100,-99.99,,,0.00,301,weatherlink.com 1.10,2013-02-04 14:19:00,
2013-02-04 09:34:00,51.1,51.0,30.14,North,9,0.0,-999.0,98,-99.99,,,0.00,285,weatherlink.com 1.10,2013-02-04 14:34:00,
2013-02-04 09:50:00,52.8,51.0,30.14,NNE,17,2.0,-999.0,92,-99.99,,,0.00,501,weatherlink.com 1.10,2013-02-04 14:50:00,
2013-02-04 10:04:00,55.0,50.0,30.14,ENE,78,0.0,-999.0,84,-99.99,,,0.00,504,weatherlink.com 1.10,2013-02-04 15:04:00,
2013-02-04 10:19:00,56.9,46.0,30.13,ENE,67,0.0,-999.0,68,-99.99,,,0.00,545,weatherlink.com 1.10,2013-02-04 15:19:00,
2013-02-04 10:34:00,60.7,43.0,30.13,East,86,3.0,-999.0,52,-99.99,,,0.00,355,weatherlink.com 1.10,2013-02-04 15:34:00,
2013-02-04 10:49:00,61.2,38.0,30.12,East,80,0.0,-999.0,42,-99.99,,,0.00,496,weatherlink.com 1.10,2013-02-04 15:49:00,
2013-02-04 11:05:00,62.4,35.0,30.12,East,83,4.0,-999.0,36,-99.99,,,0.00,294,weatherlink.com 1.10,2013-02-04 16:05:00,
2013-02-04 11:19:00,62.6,38.0,30.11,ENE,71,5.0,-999.0,41,-99.99,,,0.00,584,weatherlink.com 1.10,2013-02-04 16:19:00,
2013-02-04 11:35:00,63.2,37.0,30.10,East,85,4.0,-999.0,38,-99.99,,,0.00,691,weatherlink.com 1.10,2013-02-04 16:35:00,
2013-02-04 11:49:00,64.2,39.0,30.10,SSE,163,0.0,-999.0,39,-99.99,,,0.00,745,weatherlink.com 1.10,2013-02-04 16:49:00,
2013-02-04 12:04:00,65.2,37.0,30.10,NE,51,0.0,-999.0,36,-99.99,,,0.00,738,weatherlink.com 1.10,2013-02-04 17:04:00,
2013-02-04 12:19:00,65.6,36.0,30.09,ENE,67,4.0,-999.0,34,-99.99,,,0.00,698,weatherlink.com 1.10,2013-02-04 17:19:00,
2013-02-04 12:35:00,66.1,34.0,30.09,ENE,71,5.0,-999.0,31,-99.99,,,0.00,742,weatherlink.com 1.10,2013-02-04 17:35:00,
2013-02-04 12:49:00,66.3,36.0,30.07,West,268,4.0,-999.0,33,-99.99,,,0.00,747,weatherlink.com 1.10,2013-02-04 17:49:00,
2013-02-04 13:04:00,66.8,37.0,30.06,East,79,0.0,-999.0,33,-99.99,,,0.00,749,weatherlink.com 1.10,2013-02-04 18:04:00,
2013-02-04 13:19:00,67.8,38.0,30.05,SE,141,5.0,-999.0,33,-99.99,,,0.00,744,weatherlink.com 1.10,2013-02-04 18:19:00,
2013-02-04 13:34:00,68.1,38.0,30.04,SSE,168,9.0,-999.0,33,-99.99,,,0.00,737,weatherlink.com 1.10,2013-02-04 18:34:00,
2013-02-04 13:49:00,68.4,33.0,30.04,SSE,161,2.0,-999.0,27,-99.99,,,0.00,715,weatherlink.com 1.10,2013-02-04 18:49:00,
2013-02-04 14:05:00,69.4,35.0,30.03,WSW,245,5.0,-999.0,28,-99.99,,,0.00,705,weatherlink.com 1.10,2013-02-04 19:05:00,
2013-02-04 14:20:00,69.6,35.0,30.02,SW,228,1.0,-999.0,28,-99.99,,,0.00,687,weatherlink.com 1.10,2013-02-04 19:20:00,
2013-02-04 14:35:00,69.9,34.0,30.02,WSW,252,6.0,-999.0,27,-99.99,,,0.00,661,weatherlink.com 1.10,2013-02-04 19:35:00,
2013-02-04 14:49:00,70.6,34.0,30.02,South,178,4.0,-999.0,26,-99.99,,,0.00,640,weatherlink.com 1.10,2013-02-04 19:49:00,
2013-02-04 15:04:00,70.3,35.0,30.02,SW,236,2.0,-999.0,27,-99.99,,,0.00,626,weatherlink.com 1.10,2013-02-04 20:04:00,
2013-02-04 15:19:00,70.9,35.0,30.01,WSW,240,3.0,-999.0,27,-99.99,,,0.00,559,weatherlink.com 1.10,2013-02-04 20:19:00,
2013-02-04 15:35:00,71.1,35.0,30.01,NW,321,3.0,-999.0,27,-99.99,,,0.00,529,weatherlink.com 1.10,2013-02-04 20:35:00,
2013-02-04 15:49:00,70.9,36.0,30.02,SSE,155,0.0,-999.0,28,-99.99,,,0.00,475,weatherlink.com 1.10,2013-02-04 20:49:00,
2013-02-04 16:05:00,70.8,35.0,30.02,WSW,255,3.0,-999.0,27,-99.99,,,0.00,432,weatherlink.com 1.10,2013-02-04 21:05:00,
2013-02-04 16:19:00,71.1,35.0,30.02,SW,236,0.0,-999.0,27,-99.99,,,0.00,204,weatherlink.com 1.10,2013-02-04 21:19:00,
2013-02-04 16:34:00,71.5,35.0,30.01,West,263,3.0,-999.0,26,-99.99,,,0.00,360,weatherlink.com 1.10,2013-02-04 21:34:00,
2013-02-04 16:50:00,69.1,36.0,30.02,SW,236,4.0,-999.0,30,-99.99,,,0.00,316,weatherlink.com 1.10,2013-02-04 21:50:00,
2013-02-04 17:04:00,69.6,35.0,30.03,WSW,254,0.0,-999.0,28,-99.99,,,0.00,102,weatherlink.com 1.10,2013-02-04 22:04:00,
2013-02-04 17:19:00,68.9,35.0,30.03,West,270,0.0,-999.0,29,-99.99,,,0.00,183,weatherlink.com 1.10,2013-02-04 22:19:00,
2013-02-04 17:34:00,69.1,35.0,30.03,WSW,245,0.0,-999.0,29,-99.99,,,0.00,54,weatherlink.com 1.10,2013-02-04 22:34:00,
2013-02-04 17:49:00,67.6,37.0,30.03,WNW,290,0.0,-999.0,32,-99.99,,,0.00,23,weatherlink.com 1.10,2013-02-04 22:49:00,
2013-02-04 18:04:00,65.8,39.0,30.03,WNW,290,0.0,-999.0,37,-99.99,,,0.00,9,weatherlink.com 1.10,2013-02-04 23:04:00,
2013-02-04 18:19:00,63.4,39.0,30.04,WNW,290,0.0,-999.0,41,-99.99,,,0.00,0,weatherlink.com 1.10,2013-02-04 23:19:00,
2013-02-04 18:34:00,60.5,39.0,30.03,WNW,290,0.0,-999.0,45,-99.99,,,0.00,0,weatherlink.com 1.10,2013-02-04 23:34:00,
2013-02-04 18:50:00,58.4,39.0,30.04,WNW,290,0.0,-999.0,48,-99.99,,,0.00,0,weatherlink.com 1.10,2013-02-04 23:50:00,
2013-02-04 19:04:00,56.9,40.0,30.04,WNW,290,0.0,-999.0,54,-99.99,,,0.00,0,weatherlink.com 1.10,2013-02-05 00:04:00,
2013-02-04 19:19:00,58.1,43.0,30.04,WNW,290,0.0,-999.0,58,-99.99,,,0.00,0,weatherlink.com 1.10,2013-02-05 00:19:00,
2013-02-04 19:34:00,57.3,44.0,30.04,WNW,290,0.0,-999.0,62,-99.99,,,0.00,0,weatherlink.com 1.10,2013-02-05 00:34:00,
2013-02-04 19:49:00,56.3,45.0,30.05,WNW,290,2.0,-999.0,66,-99.99,,,0.00,0,weatherlink.com 1.10,2013-02-05 00:49:00,
2013-02-04 20:04:00,55.9,45.0,30.05,WNW,290,0.0,-999.0,68,-99.99,,,0.00,0,weatherlink.com 1.10,2013-02-05 01:04:00,
2013-02-04 20:19:00,55.0,45.0,30.06,WNW,285,0.0,-999.0,70,-99.99,,,0.00,0,weatherlink.com 1.10,2013-02-05 01:19:00,
2013-02-04 20:34:00,54.5,45.0,30.05,WNW,285,0.0,-999.0,71,-99.99,,,0.00,0,weatherlink.com 1.10,2013-02-05 01:34:00,
2013-02-04 20:50:00,53.3,44.0,30.06,WNW,285,0.0,-999.0,72,-99.99,,,0.00,0,weatherlink.com 1.10,2013-02-05 01:50:00,
2013-02-04 21:04:00,52.2,44.0,30.06,WNW,285,0.0,-999.0,73,-99.99,,,0.00,0,weatherlink.com 1.10,2013-02-05 02:04:00,
2013-02-04 21:20:00,50.8,43.0,30.06,WNW,285,0.0,-999.0,75,-99.99,,,0.00,0,weatherlink.com 1.10,2013-02-05 02:20:00,
2013-02-04 21:34:00,50.4,43.0,30.07,WNW,285,0.0,-999.0,75,-99.99,,,0.00,0,weatherlink.com 1.10,2013-02-05 02:34:00,
2013-02-04 21:50:00,50.7,42.0,30.07,WNW,285,0.0,-999.0,73,-99.99,,,0.00,0,weatherlink.com 1.10,2013-02-05 02:50:00,
2013-02-04 22:04:00,51.0,42.0,30.07,WNW,285,0.0,-999.0,70,-99.99,,,0.00,0,weatherlink.com 1.10,2013-02-05 03:04:00,
2013-02-04 22:19:00,50.2,41.0,30.07,WNW,285,0.0,-999.0,71,-99.99,,,0.00,0,weatherlink.com 1.10,2013-02-05 03:19:00,
2013-02-04 22:34:00,48.6,40.0,30.07,WNW,285,0.0,-999.0,73,-99.99,,,0.00,0,weatherlink.com 1.10,2013-02-05 03:34:00,
2013-02-04 22:49:00,47.1,40.0,30.07,WNW,285,0.0,-999.0,77,-99.99,,,0.00,0,weatherlink.com 1.10,2013-02-05 03:49:00,
2013-02-04 23:04:00,47.1,41.0,30.08,WNW,285,0.0,-999.0,79,-99.99,,,0.00,0,weatherlink.com 1.10,2013-02-05 04:04:00,
2013-02-04 23:19:00,48.5,41.0,30.07,WNW,285,0.0,-999.0,76,-99.99,,,0.00,0,weatherlink.com 1.10,2013-02-05 04:19:00,
2013-02-04 23:34:00,47.7,40.0,30.07,WNW,285,0.0,-999.0,76,-99.99,,,0.00,0,weatherlink.com 1.10,2013-02-05 04:34:00,
2013-02-04 23:49:00,46.7,40.0,30.08,WNW,285,0.0,-999.0,78,-99.99,,,0.00,0,weatherlink.com 1.10,2013-02-05 04:49:00,